KVKS/VKS METAR and TAF weather

Enter ICAO airport designator
Station Type Date Time Source
KVKS METAR 2019/08/24 09:55 UTC NOAA

KVKS 240955Z AUTO 00000KT 10SM OVC090 24/24 A3001 RMK A01


Station Type Date Time Source
KVKS Decoded METAR 2019/08/24 09:55 UTC NOAA

Station name not available
Aug 24, 2019 - 05:55 AM EDT / 2019.08.24 0955 UTC
Wind: Calm:0
Visibility: 10 mile(s):0
Sky conditions: overcast
Temperature: 75 F (24 C)
Dew Point: 75 F (24 C)
Relative Humidity: 100%
Pressure (altimeter): 30.01 in. Hg (1016 hPa)
ob: KVKS 240955Z AUTO 00000KT 10SM OVC090 24/24 A3001 RMK A01
cycle: 10

Station Type Date Time Source
KVKS TAF UTC NOAA

Error!

Example: see airport list